Time;durP1;ratioP1;P1;durP2;ratioP2;P2;SDS_P1;SDS_P2;PMS_P1;PMS_P2;Temp;Humidity;BMP_temperature;BMP_pressure;BME280_temperature;BME280_humidity;BME280_pressure;Samples;Min_cycle;Max_cycle;Signal;HPM_P1;HPM_P2
2021/09/23 00:00:48;;;;;;;5.53;5.03;;;7.70;99.90;;;;;;5051192;28;20221;-63
2021/09/23 00:03:20;;;;;;;5.10;4.60;;;7.70;99.90;;;;;;5051473;28;20180;-63
2021/09/23 00:05:46;;;;;;;4.97;4.57;;;7.70;99.90;;;;;;5051254;28;20431;-63
2021/09/23 00:08:11;;;;;;;5.27;4.77;;;7.70;99.90;;;;;;5050651;28;20569;-63
2021/09/23 00:10:39;;;;;;;4.90;4.50;;;7.80;99.90;;;;;;5051062;28;20176;-63
2021/09/23 00:13:05;;;;;;;5.00;4.60;;;7.80;99.90;;;;;;5051079;28;20639;-63
2021/09/23 00:15:33;;;;;;;5.53;4.70;;;7.70;99.90;;;;;;5052558;28;20457;-63
2021/09/23 00:18:03;;;;;;;4.33;3.93;;;7.70;99.90;;;;;;5045517;28;20616;-63
2021/09/23 00:20:32;;;;;;;5.30;4.40;;;7.70;99.90;;;;;;5034548;28;20407;-62
2021/09/23 00:22:57;;;;;;;6.00;5.50;;;7.70;99.90;;;;;;5034641;28;20776;-63
2021/09/23 00:25:25;;;;;;;5.90;4.17;;;7.70;99.90;;;;;;5034711;28;20503;-62
2021/09/23 00:27:52;;;;;;;4.30;3.90;;;7.70;99.90;;;;;;5034536;28;20208;-62
2021/09/23 00:30:18;;;;;;;4.27;3.97;;;7.70;99.90;;;;;;5034202;28;20408;-63
2021/09/23 00:32:43;;;;;;;5.57;4.93;;;7.70;99.90;;;;;;5034524;28;20421;-63
2021/09/23 00:35:09;;;;;;;5.13;3.70;;;7.80;99.90;;;;;;5034216;28;20291;-62
2021/09/23 00:37:35;;;;;;;3.73;3.43;;;7.90;99.90;;;;;;5034316;28;20300;-63
2021/09/23 00:40:01;;;;;;;3.30;3.10;;;8.10;99.90;;;;;;5033958;28;20454;-63
2021/09/23 00:42:27;;;;;;;3.57;3.27;;;8.10;99.90;;;;;;5034314;28;20399;-63
2021/09/23 00:44:57;;;;;;;3.50;3.27;;;8.30;99.90;;;;;;5034344;28;20414;-62
2021/09/23 00:47:23;;;;;;;2.97;2.67;;;8.40;99.90;;;;;;5034121;28;20168;-63
2021/09/23 00:49:50;;;;;;;3.30;3.03;;;8.50;99.90;;;;;;5033684;28;20414;-63
2021/09/23 00:52:15;;;;;;;3.03;2.73;;;8.60;99.90;;;;;;5034065;28;20199;-63
2021/09/23 00:54:41;;;;;;;3.30;3.00;;;8.70;99.90;;;;;;5033886;28;20455;-63
2021/09/23 00:57:07;;;;;;;4.90;2.90;;;8.70;99.90;;;;;;5034068;28;20778;-63
2021/09/23 00:59:34;;;;;;;3.60;3.30;;;9.00;99.90;;;;;;4999759;28;20189;-62
2021/09/23 01:01:59;;;;;;;2.50;2.30;;;9.30;99.90;;;;;;5033862;28;20164;-63
2021/09/23 01:04:25;;;;;;;3.40;3.10;;;9.40;99.90;;;;;;5016307;28;20414;-62
2021/09/23 01:06:52;;;;;;;2.20;2.10;;;9.60;99.90;;;;;;5034324;28;20461;-64
2021/09/23 01:09:17;;;;;;;3.17;2.97;;;9.80;99.90;;;;;;5033397;28;20239;-63
2021/09/23 01:11:43;;;;;;;2.87;2.67;;;9.80;99.90;;;;;;5033885;28;20908;-64
2021/09/23 01:14:10;;;;;;;3.50;3.30;;;9.90;99.90;;;;;;5033672;28;20546;-63
2021/09/23 01:16:37;;;;;;;3.30;2.83;;;9.90;99.90;;;;;;5033802;28;20184;-63
2021/09/23 01:19:03;;;;;;;3.07;2.87;;;10.00;99.90;;;;;;5033186;28;20427;-64
2021/09/23 01:21:29;;;;;;;4.17;2.60;;;10.30;99.90;;;;;;5033489;28;20407;-63
2021/09/23 01:23:54;;;;;;;3.50;3.07;;;10.70;99.90;;;;;;5033554;28;20408;-64
2021/09/23 01:26:32;;;;;;;2.93;2.73;;;10.90;99.90;;;;;;5032465;28;20404;-63
2021/09/23 01:28:58;;;;;;;2.40;2.30;;;10.80;99.90;;;;;;5033212;28;20279;-64
2021/09/23 01:31:24;;;;;;;3.07;2.87;;;11.00;99.90;;;;;;5033455;28;20486;-64
2021/09/23 01:33:50;;;;;;;2.30;2.13;;;11.10;99.90;;;;;;5033228;28;20407;-63
2021/09/23 01:36:16;;;;;;;2.47;2.30;;;11.00;99.90;;;;;;5033333;28;20477;-64
2021/09/23 01:38:43;;;;;;;3.57;2.10;;;10.90;99.90;;;;;;5032866;28;20428;-64
2021/09/23 01:41:09;;;;;;;2.83;2.63;;;10.80;99.90;;;;;;5033299;28;20816;-64
2021/09/23 01:43:35;;;;;;;2.80;2.60;;;10.60;99.90;;;;;;5033300;28;20823;-64
2021/09/23 01:46:02;;;;;;;2.33;2.23;;;10.50;99.90;;;;;;5016859;28;20506;-64
2021/09/23 01:48:28;;;;;;;2.33;2.17;;;10.50;99.90;;;;;;5015485;28;20591;-63
2021/09/23 01:50:53;;;;;;;3.43;2.60;;;10.40;99.90;;;;;;5032994;28;20406;-63
2021/09/23 01:53:19;;;;;;;2.97;2.60;;;10.30;99.90;;;;;;5033018;28;20636;-63
2021/09/23 01:55:44;;;;;;;2.83;2.63;;;10.20;99.90;;;;;;5032880;28;20732;-64
2021/09/23 01:58:10;;;;;;;2.60;2.40;;;10.20;99.90;;;;;;5032521;28;20189;-63
2021/09/23 02:00:35;;;;;;;2.73;2.53;;;10.10;99.90;;;;;;5032840;28;20661;-63
2021/09/23 02:03:01;;;;;;;2.63;2.53;;;10.10;99.90;;;;;;5032768;28;20173;-64
2021/09/23 02:05:27;;;;;;;2.60;2.40;;;10.10;99.90;;;;;;5032675;28;20177;-64
2021/09/23 02:07:52;;;;;;;2.27;2.17;;;9.90;99.90;;;;;;5032563;28;20207;-63
2021/09/23 02:10:18;;;;;;;3.13;2.90;;;9.90;99.90;;;;;;5032292;28;20224;-63
2021/09/23 02:12:43;;;;;;;2.70;2.60;;;9.90;99.90;;;;;;5032569;28;20222;-64
2021/09/23 02:15:10;;;;;;;2.50;2.20;;;9.70;99.90;;;;;;5032478;28;20276;-64
2021/09/23 02:17:35;;;;;;;3.17;2.97;;;9.70;99.90;;;;;;5032264;28;20280;-63
2021/09/23 02:20:02;;;;;;;4.07;3.10;;;9.60;99.90;;;;;;5032268;28;20830;-63
2021/09/23 02:22:27;;;;;;;3.00;2.70;;;9.60;99.90;;;;;;5032373;28;20214;-64
2021/09/23 02:24:53;;;;;;;2.83;2.63;;;9.50;99.90;;;;;;5032377;28;20411;-64
2021/09/23 02:27:20;;;;;;;2.67;2.57;;;9.50;99.90;;;;;;5032261;28;20171;-63
2021/09/23 02:29:46;;;;;;;2.30;2.20;;;9.40;99.90;;;;;;5031962;28;20458;-63
2021/09/23 02:32:12;;;;;;;3.13;2.47;;;9.40;99.90;;;;;;5032110;28;20502;-63
2021/09/23 02:34:37;;;;;;;2.47;2.27;;;9.40;99.90;;;;;;5032206;28;20366;-63
2021/09/23 02:37:04;;;;;;;2.80;2.60;;;9.30;99.90;;;;;;5032313;28;20415;-64
2021/09/23 02:39:30;;;;;;;2.33;2.17;;;9.30;99.90;;;;;;5031408;28;20553;-64
2021/09/23 02:41:55;;;;;;;3.10;2.80;;;9.30;99.90;;;;;;5031987;28;20839;-63
2021/09/23 02:44:21;;;;;;;5.33;2.77;;;9.30;99.90;;;;;;5032082;28;20195;-63
2021/09/23 02:46:46;;;;;;;3.23;2.90;;;9.20;99.90;;;;;;5031875;28;20196;-63
2021/09/23 02:49:12;;;;;;;2.57;2.47;;;9.20;99.90;;;;;;5031625;28;20216;-63
2021/09/23 02:51:38;;;;;;;2.53;2.37;;;9.10;99.90;;;;;;5031916;28;20183;-63
2021/09/23 02:54:03;;;;;;;2.23;2.13;;;9.00;99.90;;;;;;5031902;28;20177;-63
2021/09/23 02:56:29;;;;;;;2.43;1.97;;;9.00;99.90;;;;;;5031988;28;20183;-63
2021/09/23 02:58:55;;;;;;;2.03;1.93;;;9.00;99.90;;;;;;5031456;28;20210;-63
2021/09/23 03:01:21;;;;;;;2.43;2.27;;;9.00;99.90;;;;;;5031570;28;20251;-63
2021/09/23 03:03:47;;;;;;;2.87;2.67;;;9.00;99.90;;;;;;5032119;28;20200;-64
2021/09/23 03:06:13;;;;;;;2.30;2.20;;;9.00;99.90;;;;;;5031849;28;20541;-63
2021/09/23 03:08:38;;;;;;;3.03;2.73;;;9.00;99.90;;;;;;5031293;28;20342;-64
2021/09/23 03:11:04;;;;;;;4.87;2.43;;;9.00;99.90;;;;;;5031808;28;20453;-63
2021/09/23 03:13:30;;;;;;;2.37;2.27;;;9.00;99.90;;;;;;5031757;28;20169;-64
2021/09/23 03:15:55;;;;;;;2.00;1.90;;;9.00;99.90;;;;;;5031611;28;20464;-63
2021/09/23 03:18:22;;;;;;;2.77;2.50;;;9.00;99.90;;;;;;5031401;28;20434;-63
2021/09/23 03:20:48;;;;;;;2.80;2.67;;;8.90;99.90;;;;;;5031766;28;20263;-63
2021/09/23 03:23:14;;;;;;;2.90;2.70;;;8.80;99.90;;;;;;5031730;28;20403;-63
2021/09/23 03:25:40;;;;;;;2.60;2.00;;;8.80;99.90;;;;;;5031677;28;20473;-63
2021/09/23 03:28:06;;;;;;;2.60;2.40;;;8.80;99.90;;;;;;5031287;28;20193;-63
2021/09/23 03:30:34;;;;;;;2.50;2.30;;;8.80;99.90;;;;;;5031908;28;20413;-63
2021/09/23 03:33:07;;;;;;;2.37;2.17;;;8.80;99.90;;;;;;5031625;28;20805;-64
2021/09/23 03:35:33;;;;;;;2.40;2.30;;;8.70;99.90;;;;;;5031649;28;20454;-63
2021/09/23 03:37:59;;;;;;;2.23;2.10;;;8.60;99.90;;;;;;5030987;28;20482;-62
2021/09/23 03:40:25;;;;;;;2.60;2.40;;;8.50;99.90;;;;;;5031416;28;20403;-63
2021/09/23 03:42:51;;;;;;;2.10;2.00;;;8.50;99.90;;;;;;5031925;28;20192;-63
2021/09/23 03:45:18;;;;;;;2.47;2.27;;;8.30;99.90;;;;;;5031365;28;20415;-63
2021/09/23 03:47:44;;;;;;;2.90;2.70;;;8.40;99.90;;;;;;5031699;28;20438;-63
2021/09/23 03:50:10;;;;;;;1.80;1.70;;;8.40;99.90;;;;;;5032219;28;20402;-63
2021/09/23 03:52:36;;;;;;;2.00;1.90;;;8.40;99.90;;;;;;5035319;28;20423;-63
2021/09/23 03:55:02;;;;;;;2.27;2.10;;;8.40;99.90;;;;;;5035122;28;20455;-63
2021/09/23 03:57:28;;;;;;;2.37;2.00;;;8.40;99.90;;;;;;5034760;28;20177;-64
2021/09/23 03:59:53;;;;;;;2.10;2.00;;;8.40;99.90;;;;;;5034728;28;20407;-63
2021/09/23 04:02:19;;;;;;;3.73;1.90;;;8.30;99.90;;;;;;5035304;28;20591;-63
2021/09/23 04:04:44;;;;;;;4.87;2.03;;;8.30;99.90;;;;;;5035174;28;20558;-63
2021/09/23 04:07:10;;;;;;;2.57;2.30;;;8.20;99.90;;;;;;5034850;28;20644;-63
2021/09/23 04:09:35;;;;;;;2.30;2.20;;;8.20;99.90;;;;;;5034538;28;20184;-63
2021/09/23 04:12:01;;;;;;;1.80;1.70;;;8.20;99.90;;;;;;5034798;28;20173;-63
2021/09/23 04:14:27;;;;;;;2.00;1.90;;;8.10;99.90;;;;;;5034651;28;20196;-63
2021/09/23 04:16:52;;;;;;;1.80;1.70;;;8.10;99.90;;;;;;5034695;28;20169;-63
2021/09/23 04:19:19;;;;;;;2.03;1.83;;;8.00;99.90;;;;;;5034494;28;20191;-63
2021/09/23 04:21:44;;;;;;;1.73;1.63;;;8.00;99.90;;;;;;5034699;28;20173;-63
2021/09/23 04:24:10;;;;;;;1.83;1.73;;;8.00;99.90;;;;;;5034652;28;20955;-63
2021/09/23 04:26:36;;;;;;;2.10;2.00;;;8.00;99.90;;;;;;5034469;28;20403;-63
2021/09/23 04:29:02;;;;;;;2.13;2.03;;;7.90;99.90;;;;;;5034101;28;20823;-63
2021/09/23 04:31:28;;;;;;;6.20;2.00;;;7.90;99.90;;;;;;5034411;28;20172;-63
2021/09/23 04:33:53;;;;;;;2.30;2.20;;;7.90;99.90;;;;;;5034518;28;20408;-63
2021/09/23 04:36:19;;;;;;;2.50;2.30;;;7.90;99.90;;;;;;5034319;28;20270;-63
2021/09/23 04:38:44;;;;;;;2.13;2.03;;;7.90;99.90;;;;;;5034022;28;20238;-63
2021/09/23 04:41:11;;;;;;;2.60;2.40;;;7.90;99.90;;;;;;5034251;28;20247;-63
2021/09/23 04:43:38;;;;;;;2.60;1.80;;;7.90;99.90;;;;;;5034201;28;20172;-63
2021/09/23 04:46:04;;;;;;;2.50;2.23;;;7.90;99.90;;;;;;5034357;28;20490;-63
2021/09/23 04:48:30;;;;;;;2.70;2.50;;;7.80;99.90;;;;;;5033748;28;20884;-63
2021/09/23 04:50:56;;;;;;;2.43;2.27;;;7.80;99.90;;;;;;5034152;28;20184;-63
2021/09/23 04:53:21;;;;;;;2.47;2.27;;;7.80;99.90;;;;;;5034052;28;20205;-63
2021/09/23 04:55:47;;;;;;;2.87;2.60;;;7.80;99.90;;;;;;5033917;28;20698;-63
2021/09/23 04:58:12;;;;;;;3.40;2.70;;;7.70;99.90;;;;;;5033652;28;20231;-63
2021/09/23 05:00:38;;;;;;;2.70;2.50;;;7.60;99.90;;;;;;5033986;28;20729;-63
2021/09/23 05:03:03;;;;;;;2.20;2.00;;;7.60;99.90;;;;;;5033905;28;20165;-63
2021/09/23 05:05:29;;;;;;;2.90;2.70;;;7.60;99.90;;;;;;5033942;28;20204;-63
2021/09/23 05:07:55;;;;;;;2.67;2.43;;;7.60;99.90;;;;;;5033704;28;20279;-62
2021/09/23 05:10:21;;;;;;;3.20;3.00;;;7.60;99.90;;;;;;5033417;28;20207;-63
2021/09/23 05:12:47;;;;;;;2.73;2.53;;;7.60;99.90;;;;;;5033949;28;20415;-63
2021/09/23 05:15:13;;;;;;;2.73;2.53;;;7.60;99.90;;;;;;5033575;28;20222;-63
2021/09/23 05:17:39;;;;;;;2.63;2.43;;;7.60;99.90;;;;;;5033608;28;20199;-62
2021/09/23 05:20:07;;;;;;;2.57;2.13;;;7.60;99.90;;;;;;5033277;28;20402;-64
2021/09/23 05:22:33;;;;;;;2.70;2.50;;;7.50;99.90;;;;;;5033529;28;20416;-63
2021/09/23 05:24:58;;;;;;;2.90;2.70;;;7.40;99.90;;;;;;5033413;28;20807;-63
2021/09/23 05:27:24;;;;;;;2.20;2.10;;;7.40;99.90;;;;;;5033571;28;20198;-63
2021/09/23 05:29:49;;;;;;;2.70;2.50;;;7.40;99.90;;;;;;5032983;28;20192;-63
2021/09/23 05:32:15;;;;;;;2.73;2.40;;;7.40;99.90;;;;;;5033385;28;20198;-63
2021/09/23 05:34:41;;;;;;;3.27;2.97;;;7.40;99.90;;;;;;5033228;28;20203;-63
2021/09/23 05:37:06;;;;;;;3.63;2.40;;;7.40;99.90;;;;;;5033332;28;20173;-63
2021/09/23 05:39:32;;;;;;;2.60;2.20;;;7.40;99.90;;;;;;5032800;28;20195;-63
2021/09/23 05:41:57;;;;;;;2.47;2.30;;;7.40;99.90;;;;;;5033053;28;20597;-63
2021/09/23 05:44:23;;;;;;;2.77;2.50;;;7.40;99.90;;;;;;5033108;28;20537;-63
2021/09/23 05:46:53;;;;;;;2.47;2.37;;;7.40;99.90;;;;;;5033051;28;20616;-63
2021/09/23 05:49:20;;;;;;;3.10;2.90;;;7.40;99.90;;;;;;5032366;28;20463;-63
2021/09/23 05:51:46;;;;;;;3.40;2.60;;;7.40;99.90;;;;;;5032952;28;20784;-63
2021/09/23 05:54:12;;;;;;;2.73;2.40;;;7.40;99.90;;;;;;5032761;28;20459;-63
2021/09/23 05:56:38;;;;;;;9.43;3.30;;;7.40;99.90;;;;;;5032894;28;20438;-63
2021/09/23 05:59:04;;;;;;;2.87;2.67;;;7.40;99.90;;;;;;5032615;28;20204;-63
2021/09/23 06:01:30;;;;;;;3.00;2.60;;;7.40;99.90;;;;;;5032760;28;20407;-63
2021/09/23 06:03:56;;;;;;;2.60;2.40;;;7.50;99.90;;;;;;5032803;28;20211;-63
2021/09/23 06:06:22;;;;;;;2.70;2.50;;;7.50;99.90;;;;;;5032796;28;20661;-66
2021/09/23 06:08:48;;;;;;;3.20;3.00;;;7.60;99.90;;;;;;5032020;28;20613;-63
2021/09/23 06:11:14;;;;;;;3.30;2.97;;;7.50;99.90;;;;;;5031154;28;20422;-63
2021/09/23 06:13:41;;;;;;;2.80;2.33;;;7.60;99.90;;;;;;5030972;28;20430;-63
2021/09/23 06:16:07;;;;;;;2.53;2.33;;;7.60;99.90;;;;;;5032430;28;20227;-62
2021/09/23 06:18:32;;;;;;;2.47;2.27;;;7.70;99.90;;;;;;5032071;28;20524;-63
2021/09/23 06:20:58;;;;;;;2.77;2.57;;;7.70;99.90;;;;;;5032372;28;20187;-62
2021/09/23 06:23:24;;;;;;;3.20;2.60;;;7.80;99.90;;;;;;5032337;28;20172;-62
2021/09/23 06:25:49;;;;;;;2.10;2.00;;;7.80;99.90;;;;;;5032360;28;20411;-63
2021/09/23 06:28:15;;;;;;;3.23;3.03;;;7.90;99.90;;;;;;5031859;28;20204;-63
2021/09/23 06:30:41;;;;;;;3.63;3.40;;;7.90;99.90;;;;;;5032344;28;20207;-64
2021/09/23 06:33:06;;;;;;;3.83;3.53;;;8.00;99.90;;;;;;5032281;28;20708;-64
2021/09/23 06:35:32;;;;;;;4.67;3.77;;;8.10;99.90;;;;;;5032081;28;20195;-63
2021/09/23 06:37:57;;;;;;;4.07;3.77;;;8.20;99.90;;;;;;5031660;28;20723;-63
2021/09/23 06:40:23;;;;;;;3.70;3.40;;;8.30;99.90;;;;;;5032033;28;20176;-63
2021/09/23 06:42:49;;;;;;;4.50;4.10;;;8.50;99.90;;;;;;5032056;28;20196;-63
2021/09/23 06:45:16;;;;;;;4.77;4.37;;;8.50;99.90;;;;;;5032106;28;20184;-63
2021/09/23 06:47:42;;;;;;;4.07;3.77;;;8.70;99.90;;;;;;5031896;28;20423;-63
2021/09/23 06:50:09;;;;;;;5.17;4.50;;;8.80;99.90;;;;;;5031649;28;20766;-63
2021/09/23 06:52:35;;;;;;;4.67;4.00;;;9.00;99.90;;;;;;5031766;28;20422;-64
2021/09/23 06:55:00;;;;;;;3.80;3.50;;;9.20;99.90;;;;;;5031848;28;20455;-63
2021/09/23 06:57:26;;;;;;;4.23;3.83;;;9.20;99.90;;;;;;5032060;28;20422;-63
2021/09/23 06:59:51;;;;;;;4.13;3.83;;;9.40;99.90;;;;;;5031566;28;20172;-64
2021/09/23 07:02:17;;;;;;;5.47;3.80;;;9.70;99.90;;;;;;5031806;28;20184;-64
2021/09/23 07:04:43;;;;;;;4.63;4.23;;;9.80;99.90;;;;;;5031817;28;20177;-64
2021/09/23 07:07:08;;;;;;;5.57;4.30;;;9.90;99.90;;;;;;5032344;28;20177;-64
2021/09/23 07:09:34;;;;;;;4.60;3.47;;;10.10;99.90;;;;;;5031320;28;20208;-64
2021/09/23 07:12:00;;;;;;;4.53;3.60;;;10.20;99.90;;;;;;5031636;28;20637;-64
2021/09/23 07:14:26;;;;;;;4.00;3.50;;;10.30;99.90;;;;;;5031606;28;20597;-64
2021/09/23 07:16:52;;;;;;;4.07;3.70;;;10.40;99.90;;;;;;5031656;28;20442;-64
2021/09/23 07:19:17;;;;;;;4.50;3.60;;;10.50;99.90;;;;;;5031259;28;20443;-64
2021/09/23 07:21:43;;;;;;;4.20;3.90;;;10.60;99.90;;;;;;5031455;28;20165;-63
2021/09/23 07:24:09;;;;;;;5.03;3.77;;;10.70;99.90;;;;;;5032814;28;20218;-64
2021/09/23 07:26:34;;;;;;;3.50;3.20;;;10.90;99.90;;;;;;5035640;28;20168;-64
2021/09/23 07:29:00;;;;;;;4.47;3.80;;;11.00;99.90;;;;;;5035268;28;20242;-64
2021/09/23 07:31:26;;;;;;;4.27;3.87;;;11.10;99.90;;;;;;5035610;28;20295;-64
2021/09/23 07:33:52;;;;;;;4.43;4.03;;;11.20;99.90;;;;;;5036031;28;20214;-64
2021/09/23 07:36:18;;;;;;;3.97;3.67;;;11.30;99.90;;;;;;5035312;28;20454;-64
2021/09/23 07:38:44;;;;;;;6.33;4.40;;;11.40;99.90;;;;;;5035108;28;20600;-64
2021/09/23 07:41:09;;;;;;;5.50;4.30;;;11.50;99.90;;;;;;5035220;28;20403;-64
2021/09/23 07:43:35;;;;;;;13.10;5.47;;;11.60;99.90;;;;;;5035531;28;20188;-62
2021/09/23 07:46:01;;;;;;;6.00;5.07;;;11.70;99.90;;;;;;5035366;28;20511;-64
2021/09/23 07:48:28;;;;;;;3.70;3.40;;;11.90;99.90;;;;;;5035006;28;20767;-64
2021/09/23 07:50:54;;;;;;;4.57;4.23;;;12.00;99.90;;;;;;5035598;28;20418;-63
2021/09/23 07:53:19;;;;;;;4.30;3.90;;;12.10;99.90;;;;;;5035229;28;20406;-64
2021/09/23 07:55:46;;;;;;;8.33;3.67;;;12.30;99.90;;;;;;5035199;28;20207;-64
2021/09/23 07:58:12;;;;;;;4.03;3.60;;;12.40;99.90;;;;;;5034659;28;20251;-64
2021/09/23 08:00:38;;;;;;;4.10;3.70;;;12.50;99.90;;;;;;5034954;28;20399;-64
2021/09/23 08:03:03;;;;;;;8.17;4.20;;;12.70;99.90;;;;;;5035043;28;20589;-64
2021/09/23 08:05:29;;;;;;;4.53;4.13;;;12.90;99.90;;;;;;5034875;28;20715;-64
2021/09/23 08:07:56;;;;;;;4.93;4.10;;;13.00;99.90;;;;;;5034701;28;20484;-63
2021/09/23 08:10:22;;;;;;;4.60;4.20;;;13.10;99.90;;;;;;5034585;28;20433;-64
2021/09/23 08:12:48;;;;;;;4.17;3.87;;;13.30;99.90;;;;;;5034835;28;20404;-64
2021/09/23 08:15:13;;;;;;;5.97;3.93;;;13.40;99.90;;;;;;5034767;28;20449;-63
2021/09/23 08:17:40;;;;;;;4.47;4.03;;;13.60;99.90;;;;;;5034653;28;20629;-64
2021/09/23 08:20:07;;;;;;;5.17;3.57;;;13.70;99.90;;;;;;5034196;28;20210;-64
2021/09/23 08:22:32;;;;;;;4.07;3.77;;;13.90;99.90;;;;;;5034679;28;21003;-64
2021/09/23 08:24:58;;;;;;;5.20;3.90;;;14.00;99.90;;;;;;5034648;28;20490;-64
2021/09/23 08:27:23;;;;;;;4.00;3.67;;;14.20;99.90;;;;;;5034505;28;20541;-64
2021/09/23 08:29:49;;;;;;;4.27;3.90;;;14.40;99.90;;;;;;5034207;28;20165;-64
2021/09/23 08:32:19;;;;;;;4.00;3.70;;;14.70;99.90;;;;;;5034525;28;20179;-64
2021/09/23 08:34:46;;;;;;;4.03;3.73;;;14.90;99.90;;;;;;5034228;28;20201;-64
2021/09/23 08:37:11;;;;;;;3.80;3.50;;;15.20;99.90;;;;;;5033564;28;20453;-64
2021/09/23 08:39:37;;;;;;;4.23;3.47;;;15.30;99.90;;;;;;5033996;28;20407;-64
2021/09/23 08:42:03;;;;;;;4.07;3.77;;;15.50;99.90;;;;;;5034277;28;20173;-64
2021/09/23 08:44:30;;;;;;;5.20;4.80;;;15.80;99.90;;;;;;5034291;28;20188;-64
2021/09/23 08:46:55;;;;;;;6.23;4.00;;;16.00;99.90;;;;;;5034174;28;20414;-64
2021/09/23 08:49:21;;;;;;;3.80;3.50;;;16.30;99.00;;;;;;5033679;28;20431;-65
2021/09/23 08:51:47;;;;;;;4.53;3.23;;;16.40;97.60;;;;;;5034147;28;20691;-64
2021/09/23 08:54:13;;;;;;;4.20;3.80;;;16.50;96.60;;;;;;5034188;28;20259;-64
2021/09/23 08:56:39;;;;;;;4.07;3.77;;;16.70;97.10;;;;;;5034029;28;20407;-64
2021/09/23 08:59:05;;;;;;;4.10;3.70;;;16.80;96.50;;;;;;5033988;28;20485;-64
2021/09/23 09:01:49;;;;;;;4.73;3.63;;;16.90;96.00;;;;;;5033910;28;20263;-64
2021/09/23 09:04:16;;;;;;;3.67;3.40;;;17.20;96.60;;;;;;5033846;28;20234;-64
2021/09/23 09:06:57;;;;;;;4.30;3.90;;;17.50;95.50;;;;;;5034054;28;20486;-64
2021/09/23 09:09:23;;;;;;;5.00;3.83;;;17.50;94.00;;;;;;5033777;28;20447;-64
2021/09/23 09:11:56;;;;;;;3.90;3.60;;;17.80;95.10;;;;;;5033690;28;20410;-65
2021/09/23 09:14:23;;;;;;;4.17;3.70;;;18.00;94.80;;;;;;5033606;28;20407;-65
2021/09/23 09:16:55;;;;;;;3.67;3.33;;;18.30;95.20;;;;;;5033607;28;20456;-64
2021/09/23 09:19:20;;;;;;;4.50;4.20;;;18.60;93.60;;;;;;5033324;28;20423;-65
2021/09/23 09:21:47;;;;;;;4.83;3.03;;;19.10;94.40;;;;;;5033553;28;20400;-65
2021/09/23 09:24:17;;;;;;;3.70;3.40;;;19.40;93.00;;;;;;5033560;28;20299;-64
2021/09/23 09:26:43;;;;;;;3.53;3.23;;;19.70;93.40;;;;;;5033425;28;20414;-64
2021/09/23 09:29:12;;;;;;;3.63;3.33;;;19.80;91.30;;;;;;5032969;28;20983;-64
2021/09/23 09:31:46;;;;;;;5.00;3.70;;;19.90;91.90;;;;;;5033346;28;20402;-65
2021/09/23 09:34:12;;;;;;;3.17;2.93;;;19.80;89.80;;;;;;5033331;28;20407;-64
2021/09/23 09:36:41;;;;;;;6.30;3.40;;;20.00;90.90;;;;;;5033348;28;20489;-65
2021/09/23 09:39:13;;;;;;;4.00;3.70;;;20.20;89.60;;;;;;5032841;28;20958;-65
2021/09/23 09:41:51;;;;;;;3.50;3.23;;;20.50;90.90;;;;;;5033177;28;20403;-65
2021/09/23 09:44:17;;;;;;;4.40;4.10;;;20.60;90.10;;;;;;5033561;28;20403;-65
2021/09/23 09:46:54;;;;;;;3.77;3.47;;;21.00;86.10;;;;;;5032946;28;20407;-65
2021/09/23 09:49:23;;;;;;;3.90;3.60;;;21.00;84.70;;;;;;5032123;28;20570;-65
2021/09/23 09:51:55;;;;;;;3.40;3.20;;;20.70;85.20;;;;;;5032753;28;20462;-65
2021/09/23 09:54:21;;;;;;;3.20;3.00;;;20.80;86.90;;;;;;5032823;28;20407;-65
2021/09/23 09:56:56;;;;;;;3.20;2.90;;;21.10;85.50;;;;;;5032960;28;20410;-65
2021/09/23 09:59:22;;;;;;;3.40;3.03;;;21.50;86.80;;;;;;5032488;28;20450;-65
2021/09/23 10:01:50;;;;;;;3.20;3.00;;;21.90;85.30;;;;;;5032749;28;20443;-65
2021/09/23 10:04:17;;;;;;;3.07;2.80;;;22.40;88.30;;;;;;5032620;28;20230;-65
2021/09/23 10:06:44;;;;;;;3.30;2.97;;;22.80;84.40;;;;;;5032719;28;20414;-65
2021/09/23 10:09:13;;;;;;;3.53;3.33;;;22.80;83.10;;;;;;5032185;28;20828;-65
2021/09/23 10:11:44;;;;;;;3.30;3.10;;;23.10;84.80;;;;;;5032867;28;20867;-65
2021/09/23 10:14:11;;;;;;;3.33;3.13;;;23.40;81.50;;;;;;5032606;28;20462;-65
2021/09/23 10:16:38;;;;;;;3.87;3.47;;;23.40;80.80;;;;;;5032525;28;20458;-65
2021/09/23 10:19:04;;;;;;;3.87;3.50;;;23.50;79.70;;;;;;5032363;28;20427;-65
2021/09/23 10:21:30;;;;;;;3.47;3.27;;;23.50;80.50;;;;;;5032406;28;20399;-65
2021/09/23 10:23:56;;;;;;;3.13;2.93;;;24.00;84.30;;;;;;5032410;28;20418;-65
2021/09/23 10:26:27;;;;;;;3.30;3.00;;;24.20;83.00;;;;;;5032616;28;20255;-66
2021/09/23 10:28:56;;;;;;;3.50;3.30;;;24.40;79.90;;;;;;5031995;28;20431;-65
2021/09/23 10:31:30;;;;;;;5.93;3.27;;;24.30;75.30;;;;;;5032153;28;20446;-66
2021/09/23 10:33:56;;;;;;;2.80;2.60;;;24.30;77.80;;;;;;5032294;28;20419;-65
2021/09/23 10:36:22;;;;;;;2.97;2.77;;;24.50;77.30;;;;;;5032171;28;20875;-65
2021/09/23 10:38:48;;;;;;;3.40;3.20;;;24.50;75.00;;;;;;5031783;28;20463;-66
2021/09/23 10:41:15;;;;;;;3.20;3.00;;;24.60;75.50;;;;;;5032251;28;20182;-66
2021/09/23 10:43:42;;;;;;;3.73;3.23;;;25.10;79.90;;;;;;5032148;28;20651;-66
2021/09/23 10:46:10;;;;;;;3.93;3.73;;;25.60;80.50;;;;;;5032307;28;20415;-66
2021/09/23 10:48:38;;;;;;;4.77;4.47;;;25.80;74.70;;;;;;5031504;28;20431;-66
2021/09/23 10:51:05;;;;;;;4.23;3.83;;;25.80;73.90;;;;;;5032097;28;20407;-66
2021/09/23 10:53:35;;;;;;;4.10;3.80;;;25.90;72.60;;;;;;5031985;28;20411;-66
2021/09/23 10:56:03;;;;;;;3.83;3.60;;;26.30;77.90;;;;;;5031985;28;20454;-66
2021/09/23 10:58:30;;;;;;;4.10;3.80;;;26.80;74.50;;;;;;5031099;28;21061;-66
2021/09/23 11:00:59;;;;;;;4.50;4.10;;;27.10;67.90;;;;;;5031974;28;20792;-66
2021/09/23 11:03:32;;;;;;;4.30;3.90;;;26.70;64.60;;;;;;5031929;28;20942;-65
2021/09/23 11:05:57;;;;;;;3.87;3.57;;;27.00;68.40;;;;;;5031858;28;20399;-65
2021/09/23 11:08:23;;;;;;;5.13;3.70;;;27.30;65.40;;;;;;5031216;28;20461;-66
2021/09/23 11:10:49;;;;;;;4.57;4.27;;;27.80;68.40;;;;;;5031684;28;20251;-66
2021/09/23 11:13:18;;;;;;;4.23;3.87;;;27.60;59.70;;;;;;5031727;28;20176;-66
2021/09/23 11:15:45;;;;;;;4.07;3.67;;;27.10;59.90;;;;;;5031680;28;20952;-66
2021/09/23 11:18:12;;;;;;;4.07;3.40;;;27.50;66.70;;;;;;5031753;28;20798;-66
2021/09/23 11:20:46;;;;;;;3.47;3.27;;;27.90;61.50;;;;;;5031757;28;20943;-66
2021/09/23 11:23:13;;;;;;;3.63;3.33;;;27.70;59.30;;;;;;5031742;28;20408;-66
2021/09/23 11:25:50;;;;;;;3.60;3.30;;;27.40;59.00;;;;;;5031619;28;20782;-66
2021/09/23 11:28:17;;;;;;;4.20;3.90;;;27.00;59.50;;;;;;5031521;28;20435;-66
2021/09/23 11:30:43;;;;;;;3.40;3.17;;;26.90;61.90;;;;;;5031612;28;20414;-67
2021/09/23 11:33:11;;;;;;;3.00;2.80;;;27.30;61.40;;;;;;5031661;28;20770;-66
2021/09/23 11:35:45;;;;;;;3.57;3.17;;;27.60;58.90;;;;;;5031391;28;20197;-66
2021/09/23 11:38:18;;;;;;;2.93;2.80;;;28.20;61.80;;;;;;5031261;28;20521;-67
2021/09/23 11:40:45;;;;;;;2.93;2.80;;;28.10;59.30;;;;;;5031600;28;20491;-66
2021/09/23 11:43:13;;;;;;;3.13;2.93;;;28.80;62.10;;;;;;5031821;28;20490;-66
2021/09/23 11:45:42;;;;;;;3.43;3.23;;;29.10;59.40;;;;;;5031425;28;20486;-66
2021/09/23 11:48:13;;;;;;;3.37;3.10;;;28.90;56.30;;;;;;5031001;28;20439;-67
2021/09/23 11:51:14;;;;;;;3.50;3.30;;;29.20;57.30;;;;;;5035130;28;20425;-66
2021/09/23 11:53:40;;;;;;;2.77;2.57;;;29.00;55.60;;;;;;5037267;28;20441;-68
2021/09/23 11:56:17;;;;;;;3.30;3.10;;;29.40;57.80;;;;;;5051075;28;20965;-66
2021/09/23 11:58:47;;;;;;;3.50;3.30;;;29.60;56.90;;;;;;5050841;28;20188;-66
2021/09/23 12:01:13;;;;;;;3.20;3.00;;;29.90;55.60;;;;;;5051186;28;20418;-66
2021/09/23 12:03:41;;;;;;;3.87;3.50;;;30.40;56.80;;;;;;5051095;28;20398;-67
2021/09/23 12:06:13;;;;;;;3.20;3.00;;;30.80;55.80;;;;;;5051111;28;20183;-67
2021/09/23 12:08:39;;;;;;;2.90;2.70;;;30.90;55.80;;;;;;5050695;28;20446;-67
2021/09/23 12:11:07;;;;;;;2.77;2.57;;;30.80;55.60;;;;;;5051997;28;20527;-66
2021/09/23 12:13:39;;;;;;;4.50;2.70;;;31.10;54.60;;;;;;5054669;28;20414;-66
2021/09/23 12:16:10;;;;;;;2.70;2.50;;;31.20;55.70;;;;;;5054547;28;20970;-67
2021/09/23 12:18:36;;;;;;;4.07;3.77;;;31.50;52.70;;;;;;5054236;28;20430;-68
2021/09/23 12:21:23;;;;;;;3.40;3.00;;;30.90;52.80;;;;;;5054548;28;20769;-67
2021/09/23 12:23:53;;;;;;;3.80;3.50;;;30.60;52.10;;;;;;5054290;28;20410;-66
2021/09/23 12:26:20;;;;;;;4.70;3.70;;;30.20;53.40;;;;;;5054512;28;20457;-67
2021/09/23 12:28:54;;;;;;;3.30;3.10;;;30.50;54.10;;;;;;5040830;28;20581;-67
2021/09/23 12:31:47;;;;;;;3.00;2.80;;;30.60;53.80;;;;;;5034752;28;20422;-68
2021/09/23 12:34:19;;;;;;;3.13;2.93;;;31.10;54.20;;;;;;5034486;28;20404;-66
2021/09/23 12:36:48;;;;;;;3.47;3.20;;;31.40;55.20;;;;;;5034629;28;20468;-67
2021/09/23 12:39:18;;;;;;;3.90;3.03;;;31.70;55.40;;;;;;5034002;28;20422;-66
2021/09/23 12:42:00;;;;;;;3.47;3.20;;;31.60;54.50;;;;;;5034189;28;20808;-66
2021/09/23 12:44:31;;;;;;;3.93;3.33;;;31.40;53.10;;;;;;5034421;28;20474;-66
2021/09/23 12:47:14;;;;;;;3.33;3.13;;;32.00;52.50;;;;;;5034295;28;20884;-66
2021/09/23 12:50:02;;;;;;;3.10;2.90;;;32.00;52.80;;;;;;5033915;28;20400;-67
2021/09/23 12:52:33;;;;;;;4.23;3.93;;;32.10;53.50;;;;;;5034244;28;20407;-67